Time;durP1;ratioP1;P1;durP2;ratioP2;P2;SDS_P1;SDS_P2;PMS_P1;PMS_P2;Temp;Humidity;BMP_temperature;BMP_pressure;BME280_temperature;BME280_humidity;BME280_pressure;Samples;Min_cycle;Max_cycle;Signal;HPM_P1;HPM_P2
2022/05/16 00:00:05;;;;;;;6.75;2.10;;;;;;;;;;5065198;28;20052;-58
2022/05/16 00:02:31;;;;;;;12.63;2.65;;;;;;;;;;5059538;28;20471;-57
2022/05/16 00:04:58;;;;;;;8.38;2.08;;;;;;;;;;5064157;28;20106;-57
2022/05/16 00:07:24;;;;;;;5.40;2.30;;;;;;;;;;5062328;28;20029;-56
2022/05/16 00:09:50;;;;;;;6.03;2.25;;;;;;;;;;5061251;28;20033;-57
2022/05/16 00:12:16;;;;;;;7.45;2.08;;;;;;;;;;5063991;28;20476;-58
2022/05/16 00:14:43;;;;;;;6.65;1.95;;;;;;;;;;5056986;28;20052;-57
2022/05/16 00:17:09;;;;;;;8.35;2.25;;;;;;;;;;5049245;28;20033;-56
2022/05/16 00:19:35;;;;;;;5.97;2.45;;;;;;;;;;5067794;28;20028;-56
2022/05/16 00:22:02;;;;;;;7.05;2.20;;;;;;;;;;5066426;28;20490;-57
2022/05/16 00:24:28;;;;;;;5.25;1.67;;;;;;;;;;5056542;28;20117;-56
2022/05/16 00:26:55;;;;;;;4.70;2.05;;;;;;;;;;5068047;28;20089;-57
2022/05/16 00:29:21;;;;;;;7.32;2.17;;;;;;;;;;5054986;28;20021;-57
2022/05/16 00:31:47;;;;;;;5.25;1.77;;;;;;;;;;5068157;28;20035;-56
2022/05/16 00:34:14;;;;;;;6.72;2.45;;;;;;;;;;5054654;28;20052;-57
2022/05/16 00:36:42;;;;;;;7.07;1.70;;;;;;;;;;5067884;28;20040;-56
2022/05/16 00:39:09;;;;;;;6.57;2.20;;;;;;;;;;5066551;28;20041;-56
2022/05/16 00:41:35;;;;;;;6.85;2.03;;;;;;;;;;5063880;28;20031;-56
2022/05/16 00:44:01;;;;;;;5.60;2.03;;;;;;;;;;5063542;28;20513;-56
2022/05/16 00:46:29;;;;;;;6.35;1.77;;;;;;;;;;5051047;28;20057;-57
2022/05/16 00:48:55;;;;;;;8.68;2.50;;;;;;;;;;5054764;28;20070;-57
2022/05/16 00:51:51;;;;;;;3.90;1.42;;;;;;;;;;5052993;28;20171;-56
2022/05/16 00:54:25;;;;;;;5.72;2.00;;;;;;;;;;5043023;28;20071;-58
2022/05/16 00:56:54;;;;;;;6.20;1.80;;;;;;;;;;5050035;28;20128;-57
2022/05/16 00:59:24;;;;;;;5.72;1.80;;;;;;;;;;5057229;28;20036;-61
2022/05/16 01:04:50;;;;;;;5.88;1.70;;;;;;;;;;5056256;28;20039;-54
2022/05/16 01:07:32;;;;;;;5.18;1.83;;;;;;;;;;5049898;28;20060;-57
2022/05/16 01:09:58;;;;;;;6.03;2.53;;;;;;;;;;5052765;28;20017;-57
2022/05/16 01:12:30;;;;;;;4.93;1.98;;;;;;;;;;5065012;28;20082;-58
2022/05/16 01:14:56;;;;;;;5.47;2.00;;;;;;;;;;5059158;28;20029;-57
2022/05/16 01:17:22;;;;;;;8.18;2.53;;;;;;;;;;5063118;28;20475;-56
2022/05/16 01:19:50;;;;;;;11.18;2.45;;;;;;;;;;5063300;28;20021;-59
2022/05/16 01:22:21;;;;;;;5.22;1.95;;;;;;;;;;5054016;28;20017;-55
2022/05/16 01:24:48;;;;;;;6.45;2.22;;;;;;;;;;5053407;28;20082;-57
2022/05/16 01:27:14;;;;;;;7.40;1.88;;;;;;;;;;5059365;28;20025;-58
2022/05/16 01:29:39;;;;;;;6.50;1.95;;;;;;;;;;5052709;28;20082;-57
2022/05/16 01:32:06;;;;;;;4.43;1.67;;;;;;;;;;5061509;28;20502;-57
2022/05/16 01:34:32;;;;;;;5.03;2.10;;;;;;;;;;5052040;28;20052;-57
2022/05/16 01:36:58;;;;;;;6.13;2.17;;;;;;;;;;5062097;28;20094;-56
2022/05/16 01:39:24;;;;;;;5.18;2.10;;;;;;;;;;5051154;28;20059;-56
2022/05/16 01:41:50;;;;;;;5.97;1.85;;;;;;;;;;5057556;28;20565;-57
2022/05/16 01:44:16;;;;;;;6.45;2.10;;;;;;;;;;5070729;28;20024;-56
2022/05/16 01:46:42;;;;;;;4.88;1.83;;;;;;;;;;5057929;28;20021;-58
2022/05/16 01:49:09;;;;;;;7.05;1.92;;;;;;;;;;5070658;28;20479;-58
2022/05/16 01:51:35;;;;;;;4.88;1.60;;;;;;;;;;5058578;28;20993;-56
2022/05/16 01:54:03;;;;;;;6.50;1.83;;;;;;;;;;5069857;28;20045;-56
2022/05/16 01:56:30;;;;;;;7.15;2.35;;;;;;;;;;5057828;28;20041;-58
2022/05/16 01:58:56;;;;;;;6.75;2.63;;;;;;;;;;5063485;28;20028;-57
2022/05/16 02:01:22;;;;;;;6.07;2.10;;;;;;;;;;5051883;28;20029;-56
2022/05/16 02:03:49;;;;;;;4.18;1.50;;;;;;;;;;5065451;28;20046;-57
2022/05/16 02:06:15;;;;;;;5.97;1.95;;;;;;;;;;5065439;28;20029;-56
2022/05/16 02:08:43;;;;;;;4.22;1.80;;;;;;;;;;5062674;28;20029;-58
2022/05/16 02:11:10;;;;;;;4.65;1.70;;;;;;;;;;5068455;28;20914;-57
2022/05/16 02:13:37;;;;;;;4.97;2.08;;;;;;;;;;5059980;28;20463;-58
2022/05/16 02:16:03;;;;;;;5.05;2.20;;;;;;;;;;5051609;28;20044;-58
2022/05/16 02:18:29;;;;;;;5.22;1.98;;;;;;;;;;5061136;28;20064;-57
2022/05/16 02:24:38;;;;;;;4.85;1.88;;;;;;;;;;5051617;28;20159;-58
2022/05/16 02:26:26;;;;;;;5.05;1.83;;;;;;;;;;5053271;28;20544;-57
2022/05/16 02:28:52;;;;;;;5.85;1.65;;;;;;;;;;5058534;28;20576;-58
2022/05/16 02:31:20;;;;;;;6.63;2.38;;;;;;;;;;5068222;28;20077;-58
2022/05/16 02:33:46;;;;;;;7.13;1.73;;;;;;;;;;5058406;28;20048;-58
2022/05/16 02:36:12;;;;;;;6.13;2.22;;;;;;;;;;5069552;28;20169;-57
2022/05/16 02:38:38;;;;;;;6.45;2.05;;;;;;;;;;5056480;28;20500;-58
2022/05/16 02:41:04;;;;;;;8.60;2.40;;;;;;;;;;5062177;28;20248;-60
2022/05/16 02:43:30;;;;;;;4.25;1.60;;;;;;;;;;5062548;28;20468;-58
2022/05/16 02:45:56;;;;;;;5.75;1.50;;;;;;;;;;5068221;28;20032;-58
2022/05/16 02:48:22;;;;;;;7.38;1.88;;;;;;;;;;5064337;28;20460;-57
2022/05/16 02:50:48;;;;;;;5.30;1.70;;;;;;;;;;5050797;28;20029;-56
2022/05/16 02:53:14;;;;;;;5.70;1.88;;;;;;;;;;5057029;28;20029;-57
2022/05/16 02:55:40;;;;;;;5.32;2.08;;;;;;;;;;5053038;28;20037;-56
2022/05/16 02:58:09;;;;;;;4.88;1.77;;;;;;;;;;5054244;28;20146;-59
2022/05/16 03:00:36;;;;;;;3.50;1.48;;;;;;;;;;5068058;28;20111;-58
2022/05/16 03:03:02;;;;;;;5.38;2.00;;;;;;;;;;5064089;28;20047;-57
2022/05/16 03:05:28;;;;;;;5.95;1.77;;;;;;;;;;5057853;28;20436;-57
2022/05/16 03:07:54;;;;;;;4.40;1.88;;;;;;;;;;5050449;28;20048;-56
2022/05/16 03:10:20;;;;;;;4.55;1.77;;;;;;;;;;5060174;28;20140;-58
2022/05/16 03:12:46;;;;;;;4.72;1.70;;;;;;;;;;5049767;28;20108;-56
2022/05/16 03:15:13;;;;;;;5.18;1.90;;;;;;;;;;5057538;28;20348;-57
2022/05/16 03:17:41;;;;;;;7.93;1.90;;;;;;;;;;5068928;28;20132;-57
2022/05/16 03:20:08;;;;;;;5.55;1.77;;;;;;;;;;5057030;28;20104;-57
2022/05/16 03:22:34;;;;;;;6.55;2.20;;;;;;;;;;5068908;28;20107;-57
2022/05/16 03:25:00;;;;;;;6.78;2.13;;;;;;;;;;5056011;28;20200;-57
2022/05/16 03:27:26;;;;;;;4.60;1.70;;;;;;;;;;5068651;28;20032;-57
2022/05/16 03:29:52;;;;;;;5.05;1.85;;;;;;;;;;5056574;28;20167;-57
2022/05/16 03:32:18;;;;;;;6.53;1.88;;;;;;;;;;5068056;28;20025;-57
2022/05/16 03:34:44;;;;;;;7.55;2.30;;;;;;;;;;5059455;28;20128;-56
2022/05/16 03:37:11;;;;;;;7.10;2.30;;;;;;;;;;5065774;28;20433;-57
2022/05/16 03:42:22;;;;;;;5.88;2.25;;;;;;;;;;5066058;28;20392;-56
2022/05/16 03:44:48;;;;;;;4.50;1.88;;;;;;;;;;5061202;28;20031;-57
2022/05/16 03:47:14;;;;;;;5.90;1.73;;;;;;;;;;5048214;28;20472;-58
2022/05/16 03:49:41;;;;;;;4.30;1.77;;;;;;;;;;5051716;28;20787;-55
2022/05/16 03:52:07;;;;;;;4.75;1.88;;;;;;;;;;5055942;28;20021;-57
2022/05/16 03:54:33;;;;;;;5.78;1.95;;;;;;;;;;5050769;28;20025;-57
2022/05/16 03:56:59;;;;;;;5.75;1.92;;;;;;;;;;5058731;28;20044;-57
2022/05/16 03:59:26;;;;;;;4.38;2.00;;;;;;;;;;5051810;28;20032;-57
2022/05/16 04:01:52;;;;;;;4.40;1.67;;;;;;;;;;5059173;28;20428;-57
2022/05/16 04:04:18;;;;;;;7.03;2.25;;;;;;;;;;5049143;28;20394;-57
2022/05/16 04:06:46;;;;;;;5.80;1.80;;;;;;;;;;5059516;28;20104;-57
2022/05/16 04:09:12;;;;;;;5.00;2.05;;;;;;;;;;5048075;28;20029;-57
2022/05/16 04:11:38;;;;;;;3.92;1.70;;;;;;;;;;5052386;28;20506;-56
2022/05/16 04:14:04;;;;;;;4.93;1.60;;;;;;;;;;5068328;28;20075;-54
2022/05/16 04:16:31;;;;;;;6.20;1.90;;;;;;;;;;5066892;28;20035;-56
2022/05/16 04:18:57;;;;;;;4.60;1.73;;;;;;;;;;5048653;28;20082;-54
2022/05/16 04:21:23;;;;;;;4.25;1.73;;;;;;;;;;5058073;28;20032;-54
2022/05/16 04:23:49;;;;;;;6.38;1.77;;;;;;;;;;5050641;28;20033;-56
2022/05/16 04:26:15;;;;;;;4.03;1.65;;;;;;;;;;5055616;28;20027;-57
2022/05/16 04:28:41;;;;;;;5.15;1.70;;;;;;;;;;5068039;28;20063;-57
2022/05/16 04:31:07;;;;;;;5.82;2.22;;;;;;;;;;5062527;28;20048;-55
2022/05/16 04:33:35;;;;;;;5.78;1.95;;;;;;;;;;5060400;28;20052;-55
2022/05/16 04:36:01;;;;;;;4.72;2.00;;;;;;;;;;5064867;28;20036;-57
2022/05/16 04:38:27;;;;;;;4.57;1.98;;;;;;;;;;5058327;28;20071;-54
2022/05/16 04:43:39;;;;;;;3.45;1.50;;;;;;;;;;5058941;28;20094;-57
2022/05/16 04:46:06;;;;;;;5.47;2.38;;;;;;;;;;5065833;28;20028;-56
2022/05/16 04:48:32;;;;;;;5.85;1.90;;;;;;;;;;5056723;28;20025;-56
2022/05/16 04:50:58;;;;;;;4.18;1.88;;;;;;;;;;5055045;28;20033;-56
2022/05/16 04:53:24;;;;;;;5.25;1.60;;;;;;;;;;5050347;28;20485;-57
2022/05/16 04:55:52;;;;;;;5.72;2.67;;;;;;;;;;5048012;28;20195;-58
2022/05/16 04:58:18;;;;;;;4.63;2.03;;;;;;;;;;5056042;28;20086;-57
2022/05/16 05:00:44;;;;;;;15.95;2.58;;;;;;;;;;5054042;28;20021;-58
2022/05/16 05:03:10;;;;;;;12.07;2.70;;;;;;;;;;5055333;28;20542;-55
2022/05/16 05:05:36;;;;;;;9.73;3.33;;;;;;;;;;5069348;28;20075;-59
2022/05/16 05:08:02;;;;;;;11.38;2.72;;;;;;;;;;5066151;28;20024;-58
2022/05/16 05:16:11;;;;;;;13.90;3.97;;;;;;;;;;5055478;28;20075;-59
2022/05/16 05:18:37;;;;;;;16.55;3.90;;;;;;;;;;5061918;28;20104;-58
2022/05/16 05:21:03;;;;;;;17.30;4.35;;;;;;;;;;5059618;28;20115;-57
2022/05/16 05:23:29;;;;;;;20.42;4.72;;;;;;;;;;5065134;28;20025;-58
2022/05/16 05:25:56;;;;;;;23.83;5.22;;;;;;;;;;5066580;28;20479;-56
2022/05/16 05:28:23;;;;;;;25.38;5.25;;;;;;;;;;5064450;28;20032;-59
2022/05/16 05:30:49;;;;;;;25.05;4.78;;;;;;;;;;5058418;28;20112;-58
2022/05/16 05:33:15;;;;;;;25.75;5.72;;;;;;;;;;5057778;28;20048;-58
2022/05/16 05:35:41;;;;;;;20.95;4.88;;;;;;;;;;5061590;28;20028;-58
2022/05/16 05:38:09;;;;;;;22.65;4.40;;;;;;;;;;5058167;28;20098;-56
2022/05/16 05:40:35;;;;;;;23.98;5.15;;;;;;;;;;5060397;28;20032;-57
2022/05/16 05:43:08;;;;;;;19.05;4.25;;;;;;;;;;5059961;28;20025;-56
2022/05/16 05:45:34;;;;;;;24.98;5.25;;;;;;;;;;5058666;28;20063;-59
2022/05/16 05:48:01;;;;;;;11.20;4.22;;;;;;;;;;5060528;28;20593;-57
2022/05/16 05:50:27;;;;;;;20.48;5.28;;;;;;;;;;5062471;28;20025;-56
2022/05/16 05:52:53;;;;;;;23.10;5.63;;;;;;;;;;5068726;28;20032;-56
2022/05/16 05:55:19;;;;;;;12.77;4.28;;;;;;;;;;5054713;28;20087;-58
2022/05/16 05:57:45;;;;;;;14.82;4.43;;;;;;;;;;5051969;28;20125;-56
2022/05/16 06:00:12;;;;;;;19.27;5.18;;;;;;;;;;5066983;28;20561;-56
2022/05/16 06:02:40;;;;;;;15.52;4.68;;;;;;;;;;5070601;28;20165;-56
2022/05/16 06:05:06;;;;;;;22.52;5.85;;;;;;;;;;5063318;28;20024;-57
2022/05/16 06:07:32;;;;;;;24.85;5.07;;;;;;;;;;5050517;28;20545;-57
2022/05/16 06:09:58;;;;;;;31.48;6.45;;;;;;;;;;5050753;28;20582;-56
2022/05/16 06:12:24;;;;;;;26.52;5.78;;;;;;;;;;5067832;28;20028;-57
2022/05/16 06:14:50;;;;;;;24.15;5.78;;;;;;;;;;5063022;28;20025;-57
2022/05/16 06:17:17;;;;;;;20.38;5.15;;;;;;;;;;5061595;28;20498;-57
2022/05/16 06:19:44;;;;;;;22.90;5.45;;;;;;;;;;5062355;28;20600;-57
2022/05/16 06:22:10;;;;;;;32.30;6.07;;;;;;;;;;5069889;28;20037;-55
2022/05/16 06:27:21;;;;;;;35.97;5.85;;;;;;;;;;5070227;28;20078;-57
2022/05/16 06:29:47;;;;;;;26.25;6.65;;;;;;;;;;5065377;28;20029;-55
2022/05/16 06:32:13;;;;;;;25.65;6.30;;;;;;;;;;5069782;28;20162;-57
2022/05/16 06:34:39;;;;;;;15.63;5.82;;;;;;;;;;5067856;28;20499;-57
2022/05/16 06:37:05;;;;;;;20.10;5.03;;;;;;;;;;5062169;28;20024;-56
2022/05/16 06:39:31;;;;;;;24.33;6.70;;;;;;;;;;5069461;28;20036;-56
2022/05/16 06:41:57;;;;;;;18.30;5.15;;;;;;;;;;5068256;28;20024;-57
2022/05/16 06:44:23;;;;;;;21.95;4.93;;;;;;;;;;5069451;28;20035;-57
2022/05/16 06:46:50;;;;;;;24.10;5.13;;;;;;;;;;5064994;28;20052;-56
2022/05/16 06:49:16;;;;;;;26.55;6.43;;;;;;;;;;5051504;28;20511;-57
2022/05/16 06:51:42;;;;;;;23.58;5.53;;;;;;;;;;5057447;28;20028;-56
2022/05/16 06:54:08;;;;;;;21.52;6.28;;;;;;;;;;5059302;28;20070;-57
2022/05/16 06:56:35;;;;;;;21.50;5.30;;;;;;;;;;5064690;28;20102;-57
2022/05/16 06:59:01;;;;;;;27.55;6.97;;;;;;;;;;5067810;28;20493;-55
2022/05/16 07:01:27;;;;;;;18.05;5.80;;;;;;;;;;5063698;28;20020;-57
2022/05/16 07:03:53;;;;;;;19.90;7.03;;;;;;;;;;5059207;28;20039;-57
2022/05/16 07:06:19;;;;;;;15.55;5.28;;;;;;;;;;5062901;28;20024;-58
2022/05/16 07:08:45;;;;;;;22.15;5.95;;;;;;;;;;5060240;28;20546;-56
2022/05/16 07:11:11;;;;;;;22.70;5.72;;;;;;;;;;5059521;28;20104;-57
2022/05/16 07:13:37;;;;;;;20.02;6.55;;;;;;;;;;5068791;28;20395;-57
2022/05/16 07:16:03;;;;;;;21.27;5.97;;;;;;;;;;5065476;28;20091;-58
2022/05/16 07:18:29;;;;;;;26.90;6.13;;;;;;;;;;5059754;28;20111;-58
2022/05/16 07:20:55;;;;;;;19.75;6.47;;;;;;;;;;5050618;28;20113;-57
2022/05/16 07:23:21;;;;;;;20.08;5.50;;;;;;;;;;5066729;28;20036;-57
2022/05/16 07:28:32;;;;;;;15.73;6.05;;;;;;;;;;5065706;28;20032;-54
2022/05/16 07:30:59;;;;;;;13.93;5.68;;;;;;;;;;5065663;28;20033;-53
2022/05/16 07:33:25;;;;;;;18.05;5.82;;;;;;;;;;5060219;28;20051;-56
2022/05/16 07:35:52;;;;;;;19.08;6.07;;;;;;;;;;5068497;28;20040;-58
2022/05/16 07:38:23;;;;;;;42.95;6.88;;;;;;;;;;5064212;28;20033;-58
2022/05/16 07:40:51;;;;;;;94.63;10.32;;;;;;;;;;5068919;28;20040;-58
2022/05/16 07:43:17;;;;;;;28.55;6.18;;;;;;;;;;5067679;28;20640;-57
2022/05/16 07:45:43;;;;;;;21.80;5.85;;;;;;;;;;5069046;28;20039;-57
2022/05/16 07:48:09;;;;;;;23.58;6.35;;;;;;;;;;5066106;28;20036;-58
2022/05/16 07:50:36;;;;;;;27.67;6.55;;;;;;;;;;5051866;28;20107;-57
2022/05/16 07:53:11;;;;;;;28.65;5.95;;;;;;;;;;5054242;28;20021;-58
2022/05/16 07:55:37;;;;;;;18.70;4.70;;;;;;;;;;5052724;28;20052;-58
2022/05/16 07:58:04;;;;;;;28.80;5.85;;;;;;;;;;5052289;28;20291;-58
2022/05/16 08:00:30;;;;;;;19.10;5.13;;;;;;;;;;5049508;28;20083;-58
2022/05/16 08:02:56;;;;;;;30.85;6.70;;;;;;;;;;5061577;28;20142;-58
2022/05/16 08:05:22;;;;;;;19.55;4.97;;;;;;;;;;5058817;28;20028;-57
2022/05/16 08:10:51;;;;;;;34.78;6.20;;;;;;;;;;5018864;28;20033;-58
2022/05/16 08:13:17;;;;;;;28.38;5.80;;;;;;;;;;5048201;28;20155;-57
2022/05/16 08:15:43;;;;;;;32.08;5.45;;;;;;;;;;5061884;28;20039;-58
2022/05/16 08:18:11;;;;;;;32.63;5.60;;;;;;;;;;5062103;28;20064;-57
2022/05/16 08:20:42;;;;;;;26.17;4.25;;;;;;;;;;5067318;28;20032;-55
2022/05/16 08:23:08;;;;;;;29.02;4.93;;;;;;;;;;5065292;28;20025;-58
2022/05/16 08:25:34;;;;;;;25.67;4.13;;;;;;;;;;5064272;28;20128;-58
2022/05/16 08:28:01;;;;;;;29.00;4.43;;;;;;;;;;5068005;28;20115;-58
2022/05/16 08:30:28;;;;;;;25.38;4.82;;;;;;;;;;5061318;28;20033;-57
2022/05/16 08:32:56;;;;;;;12.90;4.20;;;;;;;;;;5067866;28;20094;-57
2022/05/16 08:35:23;;;;;;;21.42;4.70;;;;;;;;;;5058265;28;20136;-57
2022/05/16 08:40:44;;;;;;;21.20;4.20;;;;;;;;;;5064322;28;20098;-56
2022/05/16 08:43:17;;;;;;;17.48;4.30;;;;;;;;;;5067270;28;20029;-57
2022/05/16 08:45:52;;;;;;;18.70;4.72;;;;;;;;;;5059538;28;20024;-58
2022/05/16 08:48:44;;;;;;;23.20;4.60;;;;;;;;;;5070941;28;20086;-58
2022/05/16 08:51:18;;;;;;;12.00;4.00;;;;;;;;;;5056743;28;20494;-57
2022/05/16 08:53:49;;;;;;;12.43;3.97;;;;;;;;;;5056293;28;20517;-58
2022/05/16 08:56:22;;;;;;;15.20;4.53;;;;;;;;;;5063836;28;20129;-58
2022/05/16 08:59:01;;;;;;;17.85;4.40;;;;;;;;;;5070889;28;20620;-57
2022/05/16 09:01:29;;;;;;;14.68;4.50;;;;;;;;;;5070156;28;20020;-59
2022/05/16 09:03:59;;;;;;;17.48;4.28;;;;;;;;;;5071107;28;20107;-57
2022/05/16 09:06:27;;;;;;;16.38;4.28;;;;;;;;;;5066526;28;20477;-57
2022/05/16 09:08:59;;;;;;;14.45;3.97;;;;;;;;;;5071105;28;20031;-58
2022/05/16 09:11:45;;;;;;;16.52;4.13;;;;;;;;;;5066136;28;20040;-58
2022/05/16 09:14:30;;;;;;;12.43;3.72;;;;;;;;;;5071288;28;20025;-59
2022/05/16 09:17:09;;;;;;;14.18;3.45;;;;;;;;;;5069060;28;20032;-58
2022/05/16 09:19:47;;;;;;;17.08;3.95;;;;;;;;;;5070463;28;20032;-58
2022/05/16 09:22:13;;;;;;;15.57;4.47;;;;;;;;;;5063320;28;20131;-58
2022/05/16 09:24:51;;;;;;;17.92;4.47;;;;;;;;;;5070675;28;20035;-59
2022/05/16 09:28:34;;;;;;;13.30;3.67;;;;;;;;;;5066256;28;20072;-58
2022/05/16 09:30:07;;;;;;;18.20;4.25;;;;;;;;;;5069803;28;20036;-58
2022/05/16 09:32:38;;;;;;;11.18;3.35;;;;;;;;;;5060054;28;20151;-58
2022/05/16 09:35:04;;;;;;;12.52;3.58;;;;;;;;;;5062030;28;20078;-56
2022/05/16 09:37:30;;;;;;;15.55;3.70;;;;;;;;;;5063271;28;20040;-57
2022/05/16 09:39:57;;;;;;;16.60;3.55;;;;;;;;;;5060582;28;20542;-59
2022/05/16 09:42:25;;;;;;;14.20;3.47;;;;;;;;;;5062049;28;20044;-56
2022/05/16 09:44:59;;;;;;;8.85;3.42;;;;;;;;;;5061407;28;20303;-58
2022/05/16 09:47:29;;;;;;;10.05;3.50;;;;;;;;;;5061571;28;20470;-58
2022/05/16 09:50:10;;;;;;;13.73;4.30;;;;;;;;;;5060765;28;20056;-58
2022/05/16 09:52:42;;;;;;;9.00;3.40;;;;;;;;;;5061697;28;20045;-57
2022/05/16 09:55:09;;;;;;;10.82;3.13;;;;;;;;;;5060151;28;20055;-54
2022/05/16 09:57:40;;;;;;;11.88;4.18;;;;;;;;;;5062204;28;20442;-56
2022/05/16 10:00:16;;;;;;;14.23;3.33;;;;;;;;;;5060506;28;20028;-58
2022/05/16 10:02:42;;;;;;;12.55;3.40;;;;;;;;;;5061736;28;20593;-58
2022/05/16 10:05:20;;;;;;;10.23;3.20;;;;;;;;;;5060204;28;20175;-57
2022/05/16 10:07:48;;;;;;;11.27;3.30;;;;;;;;;;5061328;28;20035;-61
2022/05/16 10:10:16;;;;;;;12.65;3.75;;;;;;;;;;5063511;28;20143;-60
2022/05/16 10:12:42;;;;;;;8.20;2.88;;;;;;;;;;5061713;28;20764;-57
2022/05/16 10:15:08;;;;;;;8.48;3.72;;;;;;;;;;5061571;28;20020;-57
2022/05/16 10:17:37;;;;;;;14.05;3.10;;;;;;;;;;5061955;28;20665;-58
2022/05/16 10:20:06;;;;;;;16.20;3.67;;;;;;;;;;5063405;28;20028;-57
2022/05/16 10:22:33;;;;;;;13.17;3.90;;;;;;;;;;5060602;28;20030;-56
2022/05/16 10:24:59;;;;;;;12.68;3.70;;;;;;;;;;5061699;28;20269;-56
2022/05/16 10:27:31;;;;;;;19.17;3.50;;;;;;;;;;5062187;28;20044;-58
2022/05/16 10:29:58;;;;;;;17.13;3.47;;;;;;;;;;5063095;28;20134;-57
2022/05/16 10:35:15;;;;;;;11.38;3.22;;;;;;;;;;5061232;28;20063;-56
2022/05/16 10:37:44;;;;;;;14.57;3.20;;;;;;;;;;5062590;28;20119;-57
2022/05/16 10:40:18;;;;;;;11.25;4.10;;;;;;;;;;5061430;28;20029;-57
2022/05/16 10:42:51;;;;;;;10.18;3.20;;;;;;;;;;5061235;28;20052;-57
2022/05/16 10:45:18;;;;;;;7.28;2.67;;;;;;;;;;5062951;28;20490;-58
2022/05/16 10:48:05;;;;;;;10.55;3.03;;;;;;;;;;5061842;28;20483;-57
2022/05/16 10:50:31;;;;;;;9.73;3.65;;;;;;;;;;5063375;28;20035;-57
2022/05/16 10:52:57;;;;;;;12.20;4.20;;;;;;;;;;5060545;28;20028;-57
2022/05/16 10:55:24;;;;;;;9.35;2.95;;;;;;;;;;5061934;28;20090;-58
2022/05/16 10:58:11;;;;;;;13.05;3.97;;;;;;;;;;5061495;28;20029;-56
2022/05/16 11:00:40;;;;;;;14.52;3.35;;;;;;;;;;5061584;28;20035;-58
2022/05/16 11:03:10;;;;;;;15.48;4.53;;;;;;;;;;5060736;28;20024;-57
2022/05/16 11:05:39;;;;;;;;;;;;;;;;;;5061906;28;20113;-56
2022/05/16 11:08:17;;;;;;;13.60;3.67;;;;;;;;;;5060361;28;19935;-57
2022/05/16 11:10:56;;;;;;;21.55;3.88;;;;;;;;;;5061880;28;20020;-58
2022/05/16 11:13:40;;;;;;;19.50;4.10;;;;;;;;;;5060348;28;20052;-58
2022/05/16 11:16:25;;;;;;;8.70;2.63;;;;;;;;;;5061290;28;20089;-58
2022/05/16 11:19:16;;;;;;;11.18;3.10;;;;;;;;;;5059634;28;20031;-58
2022/05/16 11:21:49;;;;;;;11.63;3.83;;;;;;;;;;5062309;28;20407;-56
2022/05/16 11:24:29;;;;;;;17.27;3.50;;;;;;;;;;5059825;28;20108;-58
2022/05/16 11:27:14;;;;;;;14.05;3.85;;;;;;;;;;5060218;28;20159;-58
2022/05/16 11:29:46;;;;;;;24.25;3.83;;;;;;;;;;5061182;28;20035;-58
2022/05/16 11:32:23;;;;;;;16.05;4.13;;;;;;;;;;5057959;28;20056;-58
2022/05/16 11:34:52;;;;;;;25.33;4.50;;;;;;;;;;5059062;28;20049;-59
2022/05/16 11:37:27;;;;;;;22.17;4.20;;;;;;;;;;5058088;28;20056;-58
2022/05/16 11:40:20;;;;;;;22.30;4.30;;;;;;;;;;5059580;28;20081;-59
2022/05/16 11:43:00;;;;;;;15.55;3.85;;;;;;;;;;5054009;28;20059;-58
2022/05/16 11:45:38;;;;;;;20.58;4.57;;;;;;;;;;5059040;28;20042;-58
2022/05/16 11:48:17;;;;;;;23.02;4.35;;;;;;;;;;5060116;28;20040;-57
2022/05/16 11:51:03;;;;;;;16.95;4.57;;;;;;;;;;5060264;28;20039;-58
2022/05/16 11:53:48;;;;;;;13.93;3.75;;;;;;;;;;5048230;28;20028;-58
2022/05/16 12:02:35;;;;;;;21.08;5.15;;;;;;;;;;5058094;28;20051;-60
2022/05/16 12:05:01;;;;;;;17.80;4.35;;;;;;;;;;5061224;28;20024;-57
2022/05/16 12:07:32;;;;;;;22.85;4.32;;;;;;;;;;5062062;28;20107;-57
2022/05/16 12:10:00;;;;;;;17.73;4.50;;;;;;;;;;5060100;28;20035;-58
2022/05/16 12:12:37;;;;;;;21.35;4.38;;;;;;;;;;5059744;28;20032;-59
2022/05/16 12:15:12;;;;;;;22.23;4.75;;;;;;;;;;5057830;28;20032;-59
2022/05/16 12:17:48;;;;;;;20.55;4.25;;;;;;;;;;5062302;28;20115;-57
2022/05/16 12:20:14;;;;;;;22.45;4.68;;;;;;;;;;5061760;28;20842;-58
2022/05/16 12:22:42;;;;;;;15.63;3.83;;;;;;;;;;5058809;28;20120;-58
2022/05/16 12:25:27;;;;;;;12.15;3.80;;;;;;;;;;5060911;28;20043;-58
2022/05/16 12:28:12;;;;;;;18.25;5.22;;;;;;;;;;5060058;28;20033;-58
2022/05/16 12:30:38;;;;;;;16.52;3.80;;;;;;;;;;5058734;28;20514;-58
2022/05/16 12:33:26;;;;;;;17.58;4.60;;;;;;;;;;5059485;28;20119;-58
2022/05/16 12:35:53;;;;;;;12.95;3.95;;;;;;;;;;5060570;28;20081;-56
2022/05/16 12:38:21;;;;;;;19.55;4.68;;;;;;;;;;5058254;28;20043;-58
2022/05/16 12:41:05;;;;;;;11.23;3.85;;;;;;;;;;5060868;28;20401;-56
2022/05/16 12:43:50;;;;;;;13.07;3.90;;;;;;;;;;5061506;28;20021;-59
2022/05/16 12:46:42;;;;;;;9.73;3.30;;;;;;;;;;5057883;28;20033;-58
2022/05/16 12:49:14;;;;;;;11.43;3.60;;;;;;;;;;5061324;28;20032;-59
2022/05/16 12:51:40;;;;;;;10.60;3.65;;;;;;;;;;5060829;28;20103;-58
2022/05/16 12:54:17;;;;;;;15.48;3.90;;;;;;;;;;5061005;28;20115;-56
2022/05/16 12:56:47;;;;;;;11.40;3.50;;;;;;;;;;5061130;28;20565;-58
2022/05/16 12:59:33;;;;;;;8.27;3.38;;;;;;;;;;5061428;28;20035;-57
2022/05/16 13:02:18;;;;;;;13.13;3.95;;;;;;;;;;5029057;28;20044;-59
2022/05/16 13:04:51;;;;;;;10.07;3.72;;;;;;;;;;5059665;28;20031;-58
2022/05/16 13:07:32;;;;;;;5.43;2.90;;;;;;;;;;5059498;28;20557;-58
2022/05/16 13:09:58;;;;;;;9.80;3.33;;;;;;;;;;5059994;28;20035;-58
2022/05/16 13:12:44;;;;;;;7.90;3.40;;;;;;;;;;5059964;28;20025;-58
2022/05/16 13:15:14;;;;;;;19.05;5.20;;;;;;;;;;5060506;28;20037;-58
2022/05/16 13:17:44;;;;;;;13.35;5.20;;;;;;;;;;5059918;28;20033;-58
2022/05/16 13:20:18;;;;;;;17.98;5.00;;;;;;;;;;5063494;28;20090;-59
2022/05/16 13:22:48;;;;;;;29.42;6.90;;;;;;;;;;5065336;28;20115;-56
2022/05/16 13:25:14;;;;;;;21.20;6.85;;;;;;;;;;5064692;28;20584;-58
2022/05/16 13:30:26;;;;;;;21.63;9.10;;;;;;;;;;5065376;28;20086;-58
2022/05/16 13:32:53;;;;;;;24.15;9.55;;;;;;;;;;5062896;28;20379;-58
2022/05/16 13:35:28;;;;;;;25.70;9.75;;;;;;;;;;5063357;28;20032;-57
2022/05/16 13:37:54;;;;;;;19.92;9.23;;;;;;;;;;5064182;28;20105;-57
2022/05/16 13:40:23;;;;;;;26.77;11.00;;;;;;;;;;5064156;28;20024;-56
2022/05/16 13:42:49;;;;;;;17.83;9.00;;;;;;;;;;5066125;28;20070;-58
2022/05/16 13:45:20;;;;;;;17.10;9.23;;;;;;;;;;5064722;28;20135;-57
2022/05/16 13:47:46;;;;;;;15.30;8.32;;;;;;;;;;5064070;28;20055;-56
2022/05/16 13:50:29;;;;;;;19.98;9.00;;;;;;;;;;5063007;28;20052;-59
2022/05/16 13:52:56;;;;;;;12.07;7.88;;;;;;;;;;5063402;28;20036;-59
2022/05/16 13:55:23;;;;;;;17.35;9.10;;;;;;;;;;5064437;28;20032;-58
2022/05/16 13:57:49;;;;;;;16.60;8.70;;;;;;;;;;5064667;28;20036;-58
2022/05/16 14:00:32;;;;;;;21.38;8.45;;;;;;;;;;5061869;28;20028;-58
2022/05/16 14:03:17;;;;;;;12.80;8.18;;;;;;;;;;5064233;28;20118;-57
2022/05/16 14:05:44;;;;;;;21.80;8.52;;;;;;;;;;5059931;28;20036;-57
2022/05/16 14:08:20;;;;;;;12.43;7.18;;;;;;;;;;5062290;28;20383;-57
2022/05/16 14:10:46;;;;;;;20.27;8.00;;;;;;;;;;5063619;28;20151;-58
2022/05/16 14:13:15;;;;;;;15.60;8.95;;;;;;;;;;5059675;28;20029;-57
2022/05/16 14:15:46;;;;;;;17.83;8.18;;;;;;;;;;5063343;28;20029;-57
2022/05/16 14:18:12;;;;;;;19.65;7.95;;;;;;;;;;5062164;28;20086;-58
2022/05/16 14:20:38;;;;;;;14.85;8.07;;;;;;;;;;5063458;28;20047;-60
2022/05/16 14:23:12;;;;;;;14.00;7.60;;;;;;;;;;5063576;28;20029;-58
2022/05/16 14:25:41;;;;;;;16.70;7.95;;;;;;;;;;5062460;28;20056;-57
2022/05/16 14:28:19;;;;;;;15.57;7.72;;;;;;;;;;5061913;28;20463;-58
2022/05/16 14:30:53;;;;;;;14.35;6.72;;;;;;;;;;5061526;28;20047;-56
2022/05/16 14:33:19;;;;;;;14.30;7.05;;;;;;;;;;5061779;28;20190;-57
2022/05/16 14:36:14;;;;;;;22.33;7.20;;;;;;;;;;5062962;28;20032;-56
2022/05/16 14:38:50;;;;;;;22.33;8.00;;;;;;;;;;5045502;28;20163;-57
2022/05/16 14:41:21;;;;;;;19.50;7.22;;;;;;;;;;5061180;28;20375;-57
2022/05/16 14:44:07;;;;;;;15.60;6.85;;;;;;;;;;5057413;28;20046;-57
2022/05/16 14:46:44;;;;;;;17.08;6.75;;;;;;;;;;5059387;28;20440;-57
2022/05/16 14:49:14;;;;;;;13.60;6.05;;;;;;;;;;5063273;28;20025;-57
2022/05/16 14:51:41;;;;;;;18.77;7.43;;;;;;;;;;5061103;28;20025;-57
2022/05/16 14:54:26;;;;;;;17.17;7.70;;;;;;;;;;5060821;28;20386;-58
2022/05/16 14:56:52;;;;;;;14.45;6.63;;;;;;;;;;5061962;28;20063;-58
2022/05/16 14:59:18;;;;;;;17.48;7.63;;;;;;;;;;5060299;28;20028;-59
2022/05/16 15:04:29;;;;;;;15.13;7.47;;;;;;;;;;5061974;28;20034;-57
2022/05/16 15:06:55;;;;;;;15.50;7.15;;;;;;;;;;5061749;28;20481;-57
2022/05/16 15:09:22;;;;;;;19.25;6.97;;;;;;;;;;5060950;28;20039;-56
2022/05/16 15:12:08;;;;;;;20.92;7.93;;;;;;;;;;5062730;28;20542;-56
2022/05/16 15:14:36;;;;;;;17.17;8.35;;;;;;;;;;5062302;28;20031;-56
2022/05/16 15:17:05;;;;;;;14.00;9.23;;;;;;;;;;5062067;28;20098;-60
2022/05/16 15:19:32;;;;;;;16.63;7.70;;;;;;;;;;5059462;28;20078;-58
2022/05/16 15:21:58;;;;;;;15.02;7.00;;;;;;;;;;5060733;28;20501;-56
2022/05/16 15:24:29;;;;;;;17.20;7.50;;;;;;;;;;5059692;28;20101;-58
2022/05/16 15:26:56;;;;;;;22.35;8.35;;;;;;;;;;5061934;28;20035;-58
2022/05/16 15:29:24;;;;;;;19.35;8.38;;;;;;;;;;5061735;28;20025;-58
2022/05/16 15:31:50;;;;;;;18.98;9.00;;;;;;;;;;5061688;28;20043;-58